Time;durP1;ratioP1;P1;durP2;ratioP2;P2;SDS_P1;SDS_P2;PMS_P1;PMS_P2;Temp;Humidity;BMP_temperature;BMP_pressure;BME280_temperature;BME280_humidity;BME280_pressure;Samples;Min_cycle;Max_cycle;Signal;HPM_P1;HPM_P2
2022/08/17 00:00:38;;;;;;;2.53;2.33;;;20.10;74.60;;;;;;5047848;28;20014;-82
2022/08/17 00:03:09;;;;;;;2.72;2.53;;;20.10;74.30;;;;;;5070319;28;20104;-84
2022/08/17 00:05:51;;;;;;;3.10;2.80;;;20.10;74.10;;;;;;5051637;28;20120;-84
2022/08/17 00:08:18;;;;;;;;;;;20.10;74.20;;;;;;5041369;28;20088;-84
2022/08/17 00:10:45;;;;;;;3.97;3.28;;;20.10;74.10;;;;;;5050724;28;19920;-83
2022/08/17 00:13:23;;;;;;;4.75;2.90;;;20.10;73.70;;;;;;5056020;28;20088;-83
2022/08/17 00:15:49;;;;;;;5.03;3.30;;;20.00;73.60;;;;;;5042614;28;20112;-84
2022/08/17 00:18:15;;;;;;;3.47;3.17;;;20.00;74.10;;;;;;5046999;28;20254;-83
2022/08/17 00:20:41;;;;;;;3.95;3.55;;;20.00;73.90;;;;;;5051129;28;20037;-82
2022/08/17 00:23:10;;;;;;;3.10;2.90;;;20.00;73.90;;;;;;5052035;28;20307;-83
2022/08/17 00:25:36;;;;;;;3.17;2.88;;;19.90;73.90;;;;;;5048216;28;20030;-83
2022/08/17 00:28:03;;;;;;;3.28;2.95;;;19.90;74.50;;;;;;5039668;28;20056;-84
2022/08/17 00:30:29;;;;;;;3.35;2.92;;;19.90;74.10;;;;;;5046044;28;20033;-83
2022/08/17 00:32:55;;;;;;;4.45;3.13;;;19.90;74.10;;;;;;5059078;28;20021;-83
2022/08/17 00:35:22;;;;;;;2.88;2.67;;;19.80;74.30;;;;;;5058001;28;20430;-84
2022/08/17 00:37:49;;;;;;;3.22;2.92;;;19.80;74.40;;;;;;5044212;28;20025;-83
2022/08/17 00:40:16;;;;;;;2.70;2.50;;;19.80;74.30;;;;;;5038019;28;20075;-84
2022/08/17 00:42:47;;;;;;;2.67;2.47;;;19.80;74.60;;;;;;5040107;28;20108;-83
2022/08/17 00:45:15;;;;;;;2.35;2.22;;;19.80;74.80;;;;;;5043997;28;20025;-84
2022/08/17 00:47:42;;;;;;;3.10;2.80;;;19.70;74.80;;;;;;5046707;28;20029;-83
2022/08/17 00:50:11;;;;;;;3.38;3.08;;;19.70;75.40;;;;;;5045461;28;20017;-83
2022/08/17 00:52:46;;;;;;;3.78;3.17;;;19.70;75.00;;;;;;5044962;28;20440;-83
2022/08/17 00:55:13;;;;;;;4.60;3.75;;;19.70;75.40;;;;;;5034027;28;20022;-83
2022/08/17 00:57:43;;;;;;;4.97;3.53;;;19.70;75.20;;;;;;5018718;28;20046;-83
2022/08/17 01:00:17;;;;;;;5.30;3.33;;;19.70;75.30;;;;;;5049543;28;20029;-83
2022/08/17 01:02:45;;;;;;;3.25;2.95;;;19.70;75.30;;;;;;5042405;28;20017;-83
2022/08/17 01:05:18;;;;;;;3.13;2.83;;;19.60;75.40;;;;;;5037561;28;20163;-83
2022/08/17 01:07:46;;;;;;;4.60;2.63;;;19.60;75.60;;;;;;5038950;28;20037;-83
2022/08/17 01:10:13;;;;;;;3.13;2.92;;;19.60;75.90;;;;;;5035742;28;20025;-84
2022/08/17 01:12:39;;;;;;;3.00;2.80;;;19.60;76.00;;;;;;5038128;28;20070;-83
2022/08/17 01:15:05;;;;;;;4.43;2.83;;;19.50;76.20;;;;;;5037439;28;20444;-83
2022/08/17 01:17:31;;;;;;;3.97;3.47;;;19.50;76.10;;;;;;5039473;28;20032;-83
2022/08/17 01:19:57;;;;;;;3.60;3.30;;;19.50;75.50;;;;;;5037083;28;20059;-83
2022/08/17 01:22:24;;;;;;;3.20;2.90;;;19.40;75.30;;;;;;5037319;28;20021;-83
2022/08/17 01:24:59;;;;;;;3.13;2.92;;;19.40;75.10;;;;;;5041845;28;20025;-83
2022/08/17 01:27:26;;;;;;;4.15;2.80;;;19.40;75.20;;;;;;5052686;28;20025;-82
2022/08/17 01:29:57;;;;;;;2.50;2.30;;;19.40;75.40;;;;;;5050514;28;20453;-83
2022/08/17 01:32:25;;;;;;;2.70;2.50;;;19.30;75.80;;;;;;5035850;28;20014;-83
2022/08/17 01:34:51;;;;;;;3.13;2.90;;;19.30;75.80;;;;;;5036250;28;20100;-82
2022/08/17 01:37:19;;;;;;;3.30;3.00;;;19.30;75.90;;;;;;5036091;28;20041;-83
2022/08/17 01:39:54;;;;;;;2.80;2.60;;;19.30;76.20;;;;;;5036385;28;20025;-83
2022/08/17 01:42:40;;;;;;;3.20;2.90;;;19.30;76.50;;;;;;5039050;28;20029;-83
2022/08/17 01:45:18;;;;;;;3.13;2.90;;;19.30;76.50;;;;;;5049244;28;20056;-83
2022/08/17 01:47:44;;;;;;;3.63;3.05;;;19.30;76.40;;;;;;5052247;28;20077;-82
2022/08/17 01:50:14;;;;;;;2.65;2.45;;;19.30;76.50;;;;;;5055288;28;20127;-83
2022/08/17 01:52:44;;;;;;;4.20;2.55;;;19.30;76.80;;;;;;5055482;28;20040;-83
2022/08/17 01:55:12;;;;;;;2.97;2.78;;;19.30;77.10;;;;;;5055904;28;20032;-82
2022/08/17 01:57:38;;;;;;;2.90;2.70;;;19.30;76.90;;;;;;5055671;28;20057;-84
2022/08/17 02:00:09;;;;;;;3.35;2.75;;;19.20;76.70;;;;;;5063259;28;20052;-84
2022/08/17 02:02:35;;;;;;;4.53;3.25;;;19.20;76.20;;;;;;5055290;28;20097;-83
2022/08/17 02:05:01;;;;;;;4.13;3.50;;;19.20;75.70;;;;;;5055406;28;20037;-83
2022/08/17 02:07:27;;;;;;;4.53;3.65;;;19.20;75.90;;;;;;5055670;28;20030;-83
2022/08/17 02:09:53;;;;;;;4.55;3.65;;;19.20;76.40;;;;;;5055149;28;20087;-83
2022/08/17 02:12:19;;;;;;;4.10;3.60;;;19.10;76.60;;;;;;5044683;28;20037;-84
2022/08/17 02:14:45;;;;;;;3.45;3.15;;;19.10;76.70;;;;;;5038426;28;20075;-84
2022/08/17 02:17:10;;;;;;;3.63;3.35;;;19.10;76.90;;;;;;5039006;28;20077;-84
2022/08/17 02:19:36;;;;;;;3.47;3.17;;;19.10;77.40;;;;;;5041815;28;20029;-84
2022/08/17 02:22:02;;;;;;;3.95;3.15;;;19.00;77.30;;;;;;5058287;28;20034;-84
2022/08/17 02:24:31;;;;;;;3.75;3.28;;;19.00;77.20;;;;;;5041194;28;20029;-84
2022/08/17 02:26:57;;;;;;;3.40;3.10;;;18.90;77.30;;;;;;5057903;28;20077;-83
2022/08/17 02:29:23;;;;;;;3.13;2.90;;;18.90;77.30;;;;;;5053325;28;20037;-83
2022/08/17 02:31:48;;;;;;;3.63;3.33;;;18.90;77.80;;;;;;5053294;28;20037;-83
2022/08/17 02:34:20;;;;;;;3.53;3.22;;;18.90;77.70;;;;;;5066300;28;20067;-83
2022/08/17 02:36:46;;;;;;;3.55;3.25;;;18.90;78.00;;;;;;5067048;28;20032;-82
2022/08/17 02:39:12;;;;;;;3.70;3.40;;;18.80;78.00;;;;;;5063176;28;20060;-84
2022/08/17 02:41:38;;;;;;;4.47;3.35;;;18.80;77.70;;;;;;5059460;28;20419;-83
2022/08/17 02:44:06;;;;;;;3.67;3.38;;;18.80;77.70;;;;;;5047484;28;20063;-83
2022/08/17 02:46:32;;;;;;;4.55;3.17;;;18.80;77.80;;;;;;5043586;28;20024;-83
2022/08/17 02:48:58;;;;;;;3.30;3.00;;;18.80;78.10;;;;;;5041439;28;20064;-84
2022/08/17 02:51:25;;;;;;;3.40;3.10;;;18.70;78.30;;;;;;5042813;28;20033;-84
2022/08/17 02:53:51;;;;;;;3.13;2.92;;;18.80;78.80;;;;;;5041668;28;20021;-84
2022/08/17 02:56:16;;;;;;;2.72;2.55;;;18.80;78.50;;;;;;5044695;28;20032;-84
2022/08/17 02:58:42;;;;;;;3.30;3.10;;;18.70;78.30;;;;;;5040802;28;20040;-82
2022/08/17 03:01:09;;;;;;;3.00;2.80;;;18.70;78.50;;;;;;5050910;28;20036;-83
2022/08/17 03:03:36;;;;;;;3.22;2.92;;;18.70;78.70;;;;;;5059869;28;20037;-83
2022/08/17 03:06:03;;;;;;;3.90;3.05;;;18.70;78.70;;;;;;5059568;28;20037;-83
2022/08/17 03:08:29;;;;;;;3.28;2.97;;;18.60;78.50;;;;;;5059136;28;20029;-83
2022/08/17 03:10:55;;;;;;;4.45;3.80;;;18.60;78.50;;;;;;5059147;28;20029;-84
2022/08/17 03:13:21;;;;;;;7.07;4.20;;;18.60;78.80;;;;;;5060928;28;20024;-82
2022/08/17 03:15:47;;;;;;;3.80;3.50;;;18.60;79.00;;;;;;5054208;28;20384;-84
2022/08/17 03:18:16;;;;;;;3.83;3.53;;;18.50;79.30;;;;;;5041190;28;20026;-84
2022/08/17 03:20:43;;;;;;;3.72;3.33;;;18.50;79.70;;;;;;5069366;22;20042;-81
2022/08/17 03:23:09;;;;;;;3.55;3.25;;;18.50;80.00;;;;;;5039937;28;20030;-81
2022/08/17 03:25:41;;;;;;;3.53;3.22;;;18.40;80.40;;;;;;5041799;28;20033;-80
2022/08/17 03:28:08;;;;;;;3.75;3.30;;;18.50;80.80;;;;;;5023219;28;20026;-81
2022/08/17 03:30:34;;;;;;;5.45;3.25;;;18.50;81.10;;;;;;5024423;28;20029;-80
2022/08/17 03:33:02;;;;;;;3.85;3.50;;;18.50;80.80;;;;;;5040020;28;20025;-80
2022/08/17 03:35:31;;;;;;;3.58;3.28;;;18.40;80.40;;;;;;5042673;28;20032;-81
2022/08/17 03:37:58;;;;;;;4.22;3.78;;;18.40;80.30;;;;;;5062180;28;20033;-80
2022/08/17 03:40:24;;;;;;;4.22;3.58;;;18.40;80.20;;;;;;5044503;28;20033;-82
2022/08/17 03:42:52;;;;;;;3.55;3.25;;;18.40;80.20;;;;;;5067563;28;20036;-78
2022/08/17 03:56:41;;;;;;;3.90;3.58;;;18.40;80.10;;;;;;5077345;28;20028;-80
2022/08/17 03:56:43;;;;;;;3.58;3.17;;;18.40;79.80;;;;;;5058717;28;20028;-80
2022/08/17 03:59:15;;;;;;;3.47;3.03;;;18.40;79.60;;;;;;5073655;28;20036;-79
2022/08/17 04:01:46;;;;;;;3.80;3.50;;;18.40;79.50;;;;;;5050470;28;20044;-80
2022/08/17 04:04:12;;;;;;;3.75;3.35;;;18.40;79.30;;;;;;5067208;28;20029;-81
2022/08/17 04:06:39;;;;;;;3.60;3.30;;;18.40;79.20;;;;;;5069940;28;20016;-82
2022/08/17 04:09:04;;;;;;;3.88;3.50;;;18.50;79.30;;;;;;5057048;28;20029;-80
2022/08/17 04:11:31;;;;;;;3.40;3.10;;;18.50;79.10;;;;;;5075867;28;20040;-79
2022/08/17 04:13:56;;;;;;;3.50;3.20;;;18.50;79.10;;;;;;5073077;28;20017;-82
2022/08/17 04:16:25;;;;;;;5.03;3.25;;;18.50;79.10;;;;;;5061905;28;20075;-82
2022/08/17 04:18:51;;;;;;;3.95;3.60;;;18.50;79.20;;;;;;5044134;28;20034;-82
2022/08/17 04:21:18;;;;;;;5.25;3.78;;;18.50;79.20;;;;;;5054213;28;20028;-81
2022/08/17 04:23:44;;;;;;;4.05;3.47;;;18.50;79.20;;;;;;5062765;28;20075;-81
2022/08/17 04:26:11;;;;;;;4.40;4.00;;;18.50;79.20;;;;;;5062677;28;20064;-81
2022/08/17 04:28:37;;;;;;;3.30;3.00;;;18.50;79.20;;;;;;5060493;28;20029;-80
2022/08/17 04:31:03;;;;;;;3.00;2.80;;;18.50;79.10;;;;;;5061735;28;20009;-80
2022/08/17 04:33:29;;;;;;;3.20;2.95;;;18.60;79.00;;;;;;5060660;28;20101;-81
2022/08/17 04:35:58;;;;;;;2.97;2.75;;;18.60;78.70;;;;;;5061067;28;20067;-79
2022/08/17 04:38:27;;;;;;;3.30;3.08;;;18.70;78.40;;;;;;5042542;28;20032;-78
2022/08/17 04:43:40;;;;;;;2.60;2.40;;;18.80;78.20;;;;;;5061617;28;20466;-82
2022/08/17 04:46:09;;;;;;;3.22;2.75;;;18.80;77.90;;;;;;5063930;28;20159;-79
2022/08/17 04:48:44;;;;;;;3.95;3.60;;;18.80;77.80;;;;;;5065683;28;20391;-82
2022/08/17 04:51:16;;;;;;;3.60;3.30;;;18.90;77.80;;;;;;5054626;28;20043;-80
2022/08/17 04:53:48;;;;;;;3.10;2.90;;;18.80;77.80;;;;;;5032667;28;20124;-82
2022/08/17 04:56:15;;;;;;;3.78;3.45;;;18.80;77.90;;;;;;5044208;28;20036;-81
2022/08/17 04:58:46;;;;;;;5.88;3.72;;;18.90;78.00;;;;;;5045503;28;20021;-81
2022/08/17 05:01:13;;;;;;;3.47;3.15;;;18.90;78.00;;;;;;5025750;28;20076;-81
2022/08/17 05:03:40;;;;;;;4.50;3.20;;;18.90;77.90;;;;;;5055784;28;20029;-78
2022/08/17 05:06:06;;;;;;;3.80;3.03;;;18.90;77.90;;;;;;5056758;28;20018;-76
2022/08/17 05:08:32;;;;;;;4.53;3.22;;;18.90;78.20;;;;;;5051125;28;20029;-81
2022/08/17 05:10:59;;;;;;;4.85;3.78;;;18.90;78.30;;;;;;5055880;28;20087;-83
2022/08/17 05:13:26;;;;;;;3.75;3.45;;;18.90;78.40;;;;;;5061804;28;20025;-83
2022/08/17 05:15:54;;;;;;;4.00;3.60;;;19.00;78.50;;;;;;5044349;28;20056;-82
2022/08/17 05:18:20;;;;;;;4.50;3.35;;;19.10;78.50;;;;;;5062005;28;20036;-82
2022/08/17 05:20:46;;;;;;;4.65;3.03;;;19.10;78.40;;;;;;5062181;28;20115;-81
2022/08/17 05:23:15;;;;;;;2.85;2.65;;;19.10;78.40;;;;;;5042873;28;20060;-81
2022/08/17 05:25:49;;;;;;;4.30;2.58;;;19.20;78.40;;;;;;5041798;28;20025;-80
2022/08/17 05:28:17;;;;;;;3.88;2.85;;;19.20;78.90;;;;;;5060764;28;20108;-82
2022/08/17 05:30:44;;;;;;;3.60;3.03;;;19.30;78.30;;;;;;5049541;28;20040;-79
2022/08/17 05:33:25;;;;;;;4.57;3.40;;;19.40;78.10;;;;;;5063296;28;20020;-82
2022/08/17 05:35:53;;;;;;;3.70;3.30;;;19.50;77.80;;;;;;5063037;28;20037;-80
2022/08/17 05:38:22;;;;;;;3.60;2.78;;;19.60;77.10;;;;;;5060129;28;20031;-80
2022/08/17 05:40:48;;;;;;;3.25;2.95;;;19.60;76.80;;;;;;5060766;28;20021;-81
2022/08/17 05:43:26;;;;;;;3.03;2.72;;;19.70;76.20;;;;;;5057344;28;20025;-82
2022/08/17 05:46:24;;;;;;;3.13;2.83;;;19.80;76.00;;;;;;5041373;28;20033;-81
2022/08/17 05:48:57;;;;;;;3.28;2.97;;;19.90;75.60;;;;;;5058033;28;20033;-81
2022/08/17 05:51:42;;;;;;;3.50;3.20;;;20.00;75.20;;;;;;5041410;28;20065;-82
2022/08/17 05:54:25;;;;;;;2.90;2.70;;;20.10;75.00;;;;;;5043415;28;20130;-82
2022/08/17 05:57:10;;;;;;;3.67;3.22;;;20.10;74.80;;;;;;5058468;28;20025;-82
2022/08/17 06:00:03;;;;;;;3.30;2.97;;;20.10;74.50;;;;;;5059787;28;20021;-81
2022/08/17 06:03:07;;;;;;;5.10;3.42;;;20.20;74.00;;;;;;5060504;28;20048;-83
2022/08/17 06:05:32;;;;;;;3.00;2.80;;;20.30;73.60;;;;;;5060174;28;20083;-84
2022/08/17 06:08:22;;;;;;;4.60;3.60;;;20.40;73.20;;;;;;5059841;28;20017;-81
2022/08/17 06:11:29;;;;;;;7.05;2.97;;;20.50;73.00;;;;;;5043987;28;20039;-80
2022/08/17 06:14:14;;;;;;;2.83;2.63;;;20.60;72.70;;;;;;5075435;28;20097;-85
2022/08/17 06:16:46;;;;;;;5.55;3.00;;;20.80;72.10;;;;;;5061258;28;20012;-82
2022/08/17 06:19:33;;;;;;;4.35;3.30;;;20.90;71.30;;;;;;5043694;28;20017;-83
2022/08/17 06:22:01;;;;;;;3.20;2.90;;;21.10;70.90;;;;;;5059662;28;20067;-83
2022/08/17 06:25:05;;;;;;;4.05;2.78;;;21.60;70.90;;;;;;5066322;28;20021;-83
2022/08/17 06:27:37;;;;;;;2.70;2.50;;;24.90;65.60;;;;;;5044991;28;20044;-83
2022/08/17 06:30:08;;;;;;;;;;;29.30;56.80;;;;;;5036189;28;20021;-83
2022/08/17 06:32:39;;;;;;;2.60;2.40;;;31.80;50.50;;;;;;5058562;28;19915;-84
2022/08/17 06:35:07;;;;;;;2.05;1.95;;;33.50;46.90;;;;;;5060407;28;20037;-82
2022/08/17 06:37:49;;;;;;;3.40;2.72;;;34.60;44.60;;;;;;5063264;28;20025;-84
2022/08/17 06:40:24;;;;;;;3.70;2.67;;;35.40;42.80;;;;;;5059507;28;20060;-83
2022/08/17 06:43:11;;;;;;;2.95;2.72;;;35.60;41.80;;;;;;5057406;28;20025;-84
2022/08/17 06:45:48;;;;;;;3.00;2.72;;;35.50;41.10;;;;;;5058811;28;20333;-85
2022/08/17 06:48:23;;;;;;;3.42;2.35;;;35.00;41.20;;;;;;5063190;28;20022;-81
2022/08/17 06:50:58;;;;;;;2.45;2.35;;;35.60;41.00;;;;;;5067846;28;20018;-81
2022/08/17 06:53:31;;;;;;;2.38;2.17;;;36.20;40.40;;;;;;5066683;28;20029;-82
2022/08/17 06:56:03;;;;;;;4.25;3.00;;;35.90;39.50;;;;;;5073809;28;20009;-79
2022/08/17 06:58:32;;;;;;;3.47;2.75;;;32.90;40.70;;;;;;5068249;28;20051;-80
2022/08/17 07:01:03;;;;;;;4.00;2.75;;;30.20;44.20;;;;;;5060616;28;20029;-81
2022/08/17 07:03:38;;;;;;;7.22;3.40;;;27.90;48.10;;;;;;5054018;28;20029;-83
2022/08/17 07:06:07;;;;;;;3.80;2.70;;;26.30;51.50;;;;;;5047192;28;20094;-83
2022/08/17 07:08:57;;;;;;;3.25;2.85;;;25.20;54.00;;;;;;5066716;28;20493;-83
2022/08/17 07:11:35;;;;;;;5.85;3.30;;;24.50;56.20;;;;;;5065546;28;20025;-83
2022/08/17 07:14:12;;;;;;;3.05;2.83;;;24.10;58.40;;;;;;5047932;28;20033;-84
2022/08/17 07:16:52;;;;;;;4.70;3.33;;;23.80;58.80;;;;;;5030506;28;20052;-83
2022/08/17 07:19:22;;;;;;;6.60;3.40;;;23.60;59.40;;;;;;5047946;28;20510;-83
2022/08/17 07:21:56;;;;;;;3.67;3.30;;;23.60;60.10;;;;;;5045288;28;20078;-83
2022/08/17 07:24:21;;;;;;;7.45;3.63;;;23.60;60.10;;;;;;5060297;28;20059;-84
2022/08/17 07:27:00;;;;;;;6.00;3.55;;;23.50;60.60;;;;;;5065513;28;20056;-82
2022/08/17 07:29:26;;;;;;;4.13;2.85;;;23.50;60.70;;;;;;5050161;28;20027;-85
2022/08/17 07:31:54;;;;;;;5.88;3.30;;;23.60;60.90;;;;;;5066069;28;20025;-84
2022/08/17 07:34:19;;;;;;;10.57;3.88;;;23.60;60.90;;;;;;5066745;28;20014;-80
2022/08/17 07:36:45;;;;;;;5.55;3.60;;;23.70;59.90;;;;;;5065491;28;20072;-84
2022/08/17 07:39:11;;;;;;;6.53;4.20;;;23.70;59.90;;;;;;5044156;28;20028;-83
2022/08/17 07:41:40;;;;;;;3.33;3.03;;;23.80;59.90;;;;;;5064647;28;20032;-84
2022/08/17 07:44:14;;;;;;;7.97;3.60;;;23.90;59.50;;;;;;5062577;28;20025;-84
2022/08/17 07:49:46;;;;;;;3.50;2.90;;;24.10;59.00;;;;;;5045270;28;20101;-83
2022/08/17 07:52:32;;;;;;;4.22;3.28;;;24.20;58.80;;;;;;5061849;28;20025;-84
2022/08/17 07:54:58;;;;;;;3.33;3.00;;;24.40;58.40;;;;;;5067268;28;20025;-83
2022/08/17 07:57:34;;;;;;;8.95;4.15;;;24.50;58.20;;;;;;5064360;28;20110;-83
2022/08/17 07:59:59;;;;;;;6.53;3.83;;;24.70;58.00;;;;;;5065646;28;20025;-84
2022/08/17 08:02:33;;;;;;;8.30;4.82;;;24.80;57.50;;;;;;5063857;28;20376;-84
2022/08/17 08:05:11;;;;;;;9.93;4.75;;;25.00;57.80;;;;;;5057482;28;20033;-82
2022/08/17 08:08:16;;;;;;;8.07;3.70;;;25.10;58.00;;;;;;5040980;28;20026;-84
2022/08/17 08:10:42;;;;;;;6.50;4.03;;;25.30;58.20;;;;;;5020651;28;20045;-83
2022/08/17 08:13:23;;;;;;;10.88;4.47;;;25.30;58.00;;;;;;5055515;28;20519;-82
2022/08/17 08:15:52;;;;;;;4.67;4.23;;;25.40;57.80;;;;;;5069222;28;20021;-84
2022/08/17 08:18:35;;;;;;;7.78;4.53;;;25.40;57.80;;;;;;5053736;28;20283;-83
2022/08/17 08:21:07;;;;;;;8.35;3.75;;;25.40;57.40;;;;;;5036649;28;20487;-84
2022/08/17 08:23:58;;;;;;;5.50;3.95;;;25.30;57.60;;;;;;5062363;28;20421;-83
2022/08/17 08:26:45;;;;;;;6.03;3.95;;;25.40;57.50;;;;;;5066046;28;20013;-84
2022/08/17 08:29:42;;;;;;;4.22;3.28;;;25.60;56.90;;;;;;5067740;28;20029;-84
2022/08/17 08:32:35;;;;;;;4.75;3.85;;;25.80;56.50;;;;;;5063833;28;20029;-83
2022/08/17 08:35:05;;;;;;;5.43;3.72;;;26.10;55.60;;;;;;5029523;28;20025;-83
2022/08/17 08:37:52;;;;;;;4.32;3.80;;;26.10;55.30;;;;;;5049590;28;20391;-82
2022/08/17 08:40:54;;;;;;;5.80;3.13;;;26.30;55.10;;;;;;5064046;28;20060;-84
2022/08/17 08:43:52;;;;;;;4.00;3.25;;;26.50;54.50;;;;;;5072602;28;20009;-81
2022/08/17 08:46:35;;;;;;;3.55;3.15;;;26.80;54.20;;;;;;5047488;28;20029;-84
2022/08/17 08:49:22;;;;;;;8.27;3.67;;;27.00;53.40;;;;;;5062034;28;20072;-84
2022/08/17 08:51:54;;;;;;;9.57;4.50;;;27.20;52.60;;;;;;5043469;28;20032;-84
2022/08/17 08:54:27;;;;;;;7.07;4.43;;;27.20;52.30;;;;;;5046801;28;20032;-83
2022/08/17 08:57:00;;;;;;;5.20;3.42;;;27.10;52.30;;;;;;5045268;28;20033;-84
2022/08/17 08:59:48;;;;;;;4.38;3.58;;;27.10;52.50;;;;;;5040600;28;20025;-83
2022/08/17 09:02:27;;;;;;;2.75;2.55;;;27.30;52.30;;;;;;5045903;28;20081;-84
2022/08/17 09:05:42;;;;;;;4.30;3.47;;;27.40;52.00;;;;;;5050119;28;20479;-85
2022/08/17 09:08:23;;;;;;;5.15;3.67;;;27.60;51.50;;;;;;5045775;28;20041;-83
2022/08/17 09:11:12;;;;;;;4.57;3.40;;;27.80;50.60;;;;;;5055447;28;20033;-84
2022/08/17 09:13:45;;;;;;;4.05;3.35;;;27.80;50.90;;;;;;5044093;28;20052;-83
2022/08/17 09:16:19;;;;;;;3.50;3.20;;;27.90;50.70;;;;;;5056872;28;20025;-84
2022/08/17 09:18:52;;;;;;;3.72;3.35;;;27.90;50.60;;;;;;5051337;28;20021;-82
2022/08/17 09:21:27;;;;;;;3.90;3.30;;;28.10;50.50;;;;;;5093336;22;20118;-83
2022/08/17 09:24:07;;;;;;;2.92;2.70;;;28.30;50.10;;;;;;5055479;28;20041;-84
2022/08/17 09:26:39;;;;;;;3.88;3.47;;;28.50;50.50;;;;;;5056642;28;20108;-84
2022/08/17 09:29:13;;;;;;;5.35;2.72;;;28.80;49.60;;;;;;5046297;28;20079;-84
2022/08/17 09:31:58;;;;;;;3.95;3.10;;;29.10;48.90;;;;;;5022710;28;20061;-84
2022/08/17 09:34:38;;;;;;;3.10;2.90;;;29.30;48.50;;;;;;5041668;28;20077;-84
2022/08/17 09:37:45;;;;;;;4.90;3.72;;;29.50;48.10;;;;;;5030286;28;20032;-84
2022/08/17 09:40:15;;;;;;;6.35;2.97;;;29.40;47.40;;;;;;5040334;28;20037;-84
2022/08/17 09:42:59;;;;;;;4.10;3.25;;;29.40;47.60;;;;;;5062514;28;20024;-82
2022/08/17 09:45:43;;;;;;;4.95;3.95;;;29.30;47.90;;;;;;5045242;28;20053;-85
2022/08/17 09:48:28;;;;;;;4.07;3.28;;;29.30;47.80;;;;;;5061327;28;20022;-83
2022/08/17 09:51:15;;;;;;;4.00;3.35;;;29.50;47.40;;;;;;5057041;28;20021;-85
2022/08/17 09:53:41;;;;;;;7.35;2.63;;;29.50;47.10;;;;;;5035914;28;20025;-84
2022/08/17 09:56:16;;;;;;;3.28;2.97;;;29.50;47.20;;;;;;5063755;28;20039;-84
2022/08/17 09:59:19;;;;;;;5.05;4.03;;;29.50;47.30;;;;;;5048184;28;20025;-84
2022/08/17 10:02:05;;;;;;;7.07;3.78;;;29.50;47.00;;;;;;5022512;28;20436;-84
2022/08/17 10:04:40;;;;;;;4.80;3.60;;;29.50;46.90;;;;;;5057603;28;20538;-85
2022/08/17 10:07:38;;;;;;;5.97;4.25;;;29.90;46.70;;;;;;5043873;28;20482;-84
2022/08/17 10:10:11;;;;;;;3.03;2.72;;;30.00;46.60;;;;;;5022498;28;20669;-84
2022/08/17 10:13:24;;;;;;;3.38;2.92;;;30.30;46.40;;;;;;5062548;28;20017;-83
2022/08/17 10:15:57;;;;;;;3.13;2.92;;;30.60;46.00;;;;;;5044690;28;20110;-84
2022/08/17 10:18:54;;;;;;;3.33;3.00;;;30.70;45.60;;;;;;5048208;28;20100;-83
2022/08/17 10:27:14;;;;;;;5.35;3.67;;;31.40;44.00;;;;;;5055622;28;20040;-83
2022/08/17 10:29:44;;;;;;;;;;;31.40;44.20;;;;;;5055716;28;20055;-84
2022/08/17 10:32:16;;;;;;;8.02;3.70;;;31.50;43.30;;;;;;5046314;28;19905;-84
2022/08/17 10:35:13;;;;;;;9.10;3.80;;;31.40;43.50;;;;;;5036659;28;20029;-84
2022/08/17 10:38:08;;;;;;;4.18;3.40;;;31.20;44.00;;;;;;5031614;28;20063;-85
2022/08/17 10:40:34;;;;;;;4.25;3.40;;;31.30;44.10;;;;;;5037514;28;20033;-85
2022/08/17 10:43:18;;;;;;;3.97;3.55;;;31.40;44.00;;;;;;5042039;28;20022;-84
2022/08/17 10:46:02;;;;;;;3.95;3.65;;;31.50;43.90;;;;;;5050262;28;20063;-82
2022/08/17 10:48:32;;;;;;;3.75;3.35;;;31.50;43.70;;;;;;5058087;28;20032;-83
2022/08/17 10:51:06;;;;;;;3.80;3.35;;;31.40;44.80;;;;;;5052790;28;20061;-82
2022/08/17 10:53:32;;;;;;;4.32;3.92;;;31.10;43.50;;;;;;5056068;28;20013;-83
2022/08/17 10:56:12;;;;;;;5.35;3.80;;;30.90;43.80;;;;;;5065304;28;20051;-83
2022/08/17 10:58:54;;;;;;;4.22;3.45;;;30.60;44.60;;;;;;5050657;28;20048;-83
2022/08/17 11:01:44;;;;;;;4.10;3.70;;;30.50;45.20;;;;;;5048051;28;20095;-84
2022/08/17 11:04:48;;;;;;;3.50;3.20;;;30.60;44.80;;;;;;5045870;28;20029;-84
2022/08/17 11:07:33;;;;;;;3.13;2.92;;;31.00;44.50;;;;;;5042373;28;20301;-83
2022/08/17 11:10:26;;;;;;;3.90;3.03;;;31.30;43.70;;;;;;5023254;28;20113;-83
2022/08/17 11:12:59;;;;;;;3.00;2.80;;;31.60;43.10;;;;;;5034582;28;20028;-84
2022/08/17 11:15:40;;;;;;;4.57;3.05;;;31.90;42.80;;;;;;5061079;28;20021;-83
2022/08/17 11:18:36;;;;;;;3.93;3.53;;;32.10;42.50;;;;;;5041500;28;20058;-84
2022/08/17 11:21:23;;;;;;;5.07;3.65;;;32.20;42.10;;;;;;5056982;28;20037;-85
2022/08/17 11:24:11;;;;;;;3.60;3.15;;;32.30;42.30;;;;;;5033339;28;20060;-84
2022/08/17 11:26:45;;;;;;;4.63;3.33;;;32.40;42.20;;;;;;5058040;28;20033;-83
2022/08/17 11:29:28;;;;;;;4.50;3.03;;;32.50;42.00;;;;;;5022208;28;20428;-84
2022/08/17 11:32:12;;;;;;;4.70;2.85;;;32.60;41.60;;;;;;5054706;28;20104;-84
2022/08/17 11:34:40;;;;;;;3.65;3.33;;;32.40;41.70;;;;;;5073679;28;20103;-85
2022/08/17 11:37:29;;;;;;;4.40;3.67;;;32.40;41.80;;;;;;5072912;28;20021;-85
2022/08/17 11:40:10;;;;;;;4.45;3.30;;;32.40;41.90;;;;;;5076701;28;20071;-83
2022/08/17 11:42:47;;;;;;;5.23;3.47;;;32.40;41.50;;;;;;5077220;28;20033;-83
2022/08/17 11:45:16;;;;;;;3.78;3.40;;;32.30;40.70;;;;;;5077277;28;20017;-82
2022/08/17 11:53:53;;;;;;;4.68;3.55;;;31.70;41.50;;;;;;5037942;28;20083;-82
2022/08/17 11:56:40;;;;;;;4.93;3.70;;;31.70;42.10;;;;;;5038834;28;20012;-83
2022/08/17 11:59:42;;;;;;;4.30;3.35;;;31.60;42.20;;;;;;5057887;28;20060;-81
2022/08/17 12:02:31;;;;;;;4.13;3.53;;;31.50;42.30;;;;;;5056770;28;20025;-83
2022/08/17 12:05:06;;;;;;;3.50;3.03;;;31.50;42.60;;;;;;5039786;28;20089;-81
2022/08/17 12:07:33;;;;;;;4.32;3.70;;;31.70;42.70;;;;;;5057026;28;20028;-83
2022/08/17 12:10:11;;;;;;;3.30;3.10;;;32.00;42.50;;;;;;5053020;28;20025;-81
2022/08/17 12:12:42;;;;;;;3.50;3.28;;;32.30;42.20;;;;;;5058996;28;20025;-82
2022/08/17 12:15:16;;;;;;;3.97;3.50;;;32.70;41.80;;;;;;5042860;28;20033;-82
2022/08/17 12:17:51;;;;;;;5.05;3.78;;;32.90;41.20;;;;;;5055468;28;20025;-82
2022/08/17 12:20:36;;;;;;;3.38;3.17;;;33.00;41.00;;;;;;5056193;28;20039;-83
2022/08/17 12:23:16;;;;;;;3.58;3.38;;;33.20;40.90;;;;;;5067891;28;20080;-82
2022/08/17 12:25:55;;;;;;;3.95;3.50;;;33.20;41.00;;;;;;5082156;28;20048;-81
2022/08/17 12:28:32;;;;;;;4.05;3.75;;;33.10;41.20;;;;;;5045139;28;20064;-81
2022/08/17 12:31:10;;;;;;;6.00;4.10;;;33.10;40.90;;;;;;5051199;28;20038;-84
2022/08/17 12:33:50;;;;;;;5.68;3.42;;;33.00;41.00;;;;;;5056762;28;20018;-85
2022/08/17 12:36:26;;;;;;;4.13;3.72;;;33.20;40.70;;;;;;5066462;28;20021;-83
2022/08/17 12:39:06;;;;;;;4.68;3.80;;;33.00;40.80;;;;;;5076966;28;20045;-83
2022/08/17 12:41:42;;;;;;;3.90;3.50;;;32.90;41.10;;;;;;5063652;28;20029;-84
2022/08/17 12:44:15;;;;;;;7.22;3.75;;;32.90;41.00;;;;;;5056446;28;20022;-81
2022/08/17 12:46:55;;;;;;;4.47;4.07;;;33.00;40.70;;;;;;5069937;28;20116;-87
2022/08/17 12:49:27;;;;;;;3.28;3.08;;;33.10;40.20;;;;;;5048795;28;20025;-84
2022/08/17 12:52:01;;;;;;;4.00;3.60;;;33.10;40.40;;;;;;5036602;28;20030;-84
2022/08/17 12:54:51;;;;;;;5.35;3.47;;;33.20;40.70;;;;;;5029074;28;20025;-83
2022/08/17 12:57:21;;;;;;;5.00;3.20;;;33.30;39.70;;;;;;5061714;28;20411;-84
2022/08/17 13:00:18;;;;;;;5.13;3.10;;;33.20;39.80;;;;;;5047302;28;20033;-84
2022/08/17 13:03:04;;;;;;;4.53;3.28;;;33.20;39.70;;;;;;5056608;28;20077;-85
2022/08/17 13:05:32;;;;;;;3.72;3.42;;;33.20;40.40;;;;;;5055463;28;20036;-83
2022/08/17 13:07:59;;;;;;;4.30;3.65;;;33.20;40.00;;;;;;5054568;28;20175;-83
2022/08/17 13:10:58;;;;;;;4.50;3.53;;;33.30;40.00;;;;;;5055588;28;20048;-82
2022/08/17 13:14:17;;;;;;;5.55;3.55;;;33.20;40.20;;;;;;5055972;28;20094;-82
2022/08/17 13:17:40;;;;;;;3.92;3.63;;;33.00;39.20;;;;;;4975953;28;20062;-81
2022/08/17 13:27:32;;;;;;;3.67;3.25;;;32.80;39.80;;;;;;4961581;29;20047;-84
2022/08/17 13:30:39;;;;;;;4.22;3.78;;;32.80;40.20;;;;;;4957588;28;20086;-85
2022/08/17 13:33:31;;;;;;;6.75;2.85;;;33.00;40.20;;;;;;4986695;28;20019;-84
2022/08/17 13:36:28;;;;;;;3.13;2.90;;;33.20;39.60;;;;;;5002453;28;20087;-84
2022/08/17 13:39:39;;;;;;;3.65;3.25;;;33.30;38.20;;;;;;5007218;28;20044;-84
2022/08/17 13:42:32;;;;;;;3.75;3.03;;;33.20;38.30;;;;;;5011549;28;20435;-84
2022/08/17 13:44:59;;;;;;;4.80;3.97;;;33.00;39.40;;;;;;5008171;28;20041;-83
2022/08/17 13:47:26;;;;;;;4.45;4.05;;;33.10;39.10;;;;;;5042624;28;20030;-85
2022/08/17 13:49:54;;;;;;;3.88;3.45;;;33.00;39.60;;;;;;5041111;28;20029;-85
2022/08/17 13:52:39;;;;;;;3.65;3.35;;;33.00;39.90;;;;;;5039412;28;20211;-84
2022/08/17 13:55:25;;;;;;;3.95;3.40;;;33.00;39.80;;;;;;5043373;28;20044;-81
2022/08/17 13:57:53;;;;;;;3.45;3.15;;;33.30;39.80;;;;;;5055266;28;20017;-81
2022/08/17 14:00:31;;;;;;;5.90;3.03;;;33.70;39.40;;;;;;5072053;28;20037;-82
2022/08/17 14:02:59;;;;;;;4.30;3.60;;;33.90;37.20;;;;;;5055878;28;20215;-82